Аэропорт: Хабаровск-Новый. Хабаровск

ICAO: UHHH

METAR:
2019-09-21 16:00:00
UHHH 211600Z 24005MPS 9999 FEW010 09/07 Q1019 R23L/190050 NOSIG RMK QFE758/1010
METAR:
2019-09-21 13:51:00
TAF UHHH 211351Z 2115/2221 23003MPS 9999 SCT011 SCT020CB TEMPO 2115/2122 26007MPS 3100 -SHRA SCT007 SCT020CB FM220000 24006MPS CAVOK TEMPO 2200/2209 26006G11MPS